sensor_id;sensor_type;location;lat;lon;timestamp;temperature;humidity
9466;DHT22;4771;48.726;9.006;2023-12-07T00:02:13;3.80;99.90
9466;DHT22;4771;48.726;9.006;2023-12-07T00:04:40;3.90;99.90
9466;DHT22;4771;48.726;9.006;2023-12-07T00:07:08;3.80;99.90
9466;DHT22;4771;48.726;9.006;2023-12-07T00:09:35;3.70;99.90
9466;DHT22;4771;48.726;9.006;2023-12-07T00:12:02;3.80;99.90
9466;DHT22;4771;48.726;9.006;2023-12-07T00:14:29;3.80;99.90
9466;DHT22;4771;48.726;9.006;2023-12-07T00:16:56;3.80;99.90
9466;DHT22;4771;48.726;9.006;2023-12-07T00:19:23;3.90;99.90
9466;DHT22;4771;48.726;9.006;2023-12-07T00:21:49;3.80;99.90
9466;DHT22;4771;48.726;9.006;2023-12-07T00:24:18;3.70;99.90
9466;DHT22;4771;48.726;9.006;2023-12-07T00:26:44;3.80;99.90
9466;DHT22;4771;48.726;9.006;2023-12-07T00:29:11;3.90;99.90
9466;DHT22;4771;48.726;9.006;2023-12-07T00:31:38;3.80;99.90
9466;DHT22;4771;48.726;9.006;2023-12-07T00:34:05;3.80;99.90
9466;DHT22;4771;48.726;9.006;2023-12-07T00:36:32;3.70;99.90
9466;DHT22;4771;48.726;9.006;2023-12-07T00:38:59;3.80;99.90
9466;DHT22;4771;48.726;9.006;2023-12-07T00:41:27;3.80;99.90
9466;DHT22;4771;48.726;9.006;2023-12-07T00:43:54;3.90;99.90
9466;DHT22;4771;48.726;9.006;2023-12-07T00:46:21;3.90;99.90
9466;DHT22;4771;48.726;9.006;2023-12-07T00:48:48;3.90;99.90
9466;DHT22;4771;48.726;9.006;2023-12-07T00:51:15;4.10;99.90
9466;DHT22;4771;48.726;9.006;2023-12-07T00:53:42;3.90;99.90
9466;DHT22;4771;48.726;9.006;2023-12-07T00:56:09;3.90;99.90
9466;DHT22;4771;48.726;9.006;2023-12-07T00:58:38;3.90;99.90
9466;DHT22;4771;48.726;9.006;2023-12-07T01:01:04;3.90;99.90
9466;DHT22;4771;48.726;9.006;2023-12-07T01:03:31;3.90;99.90
9466;DHT22;4771;48.726;9.006;2023-12-07T01:05:58;3.90;99.90
9466;DHT22;4771;48.726;9.006;2023-12-07T01:08:25;3.90;99.90
9466;DHT22;4771;48.726;9.006;2023-12-07T01:10:52;3.90;99.90
9466;DHT22;4771;48.726;9.006;2023-12-07T01:13:19;3.80;99.90
9466;DHT22;4771;48.726;9.006;2023-12-07T01:15:47;3.80;99.90
9466;DHT22;4771;48.726;9.006;2023-12-07T01:18:14;3.80;99.90
9466;DHT22;4771;48.726;9.006;2023-12-07T01:20:41;3.90;99.90
9466;DHT22;4771;48.726;9.006;2023-12-07T01:23:08;3.80;99.90
9466;DHT22;4771;48.726;9.006;2023-12-07T01:25:34;3.80;99.90
9466;DHT22;4771;48.726;9.006;2023-12-07T01:28:01;3.90;99.90
9466;DHT22;4771;48.726;9.006;2023-12-07T01:30:28;3.80;99.90
9466;DHT22;4771;48.726;9.006;2023-12-07T01:32:56;3.80;99.90
9466;DHT22;4771;48.726;9.006;2023-12-07T01:35:23;3.80;99.90
9466;DHT22;4771;48.726;9.006;2023-12-07T01:37:50;3.80;99.90
9466;DHT22;4771;48.726;9.006;2023-12-07T01:40:17;3.80;99.90
9466;DHT22;4771;48.726;9.006;2023-12-07T01:42:49;3.70;99.90
9466;DHT22;4771;48.726;9.006;2023-12-07T01:45:17;3.70;99.90
9466;DHT22;4771;48.726;9.006;2023-12-07T01:47:44;3.70;99.90
9466;DHT22;4771;48.726;9.006;2023-12-07T01:50:14;3.70;99.90
9466;DHT22;4771;48.726;9.006;2023-12-07T01:52:44;3.70;99.90
9466;DHT22;4771;48.726;9.006;2023-12-07T01:55:12;3.70;99.90
9466;DHT22;4771;48.726;9.006;2023-12-07T01:57:40;3.70;99.90
9466;DHT22;4771;48.726;9.006;2023-12-07T02:00:08;3.60;99.90
9466;DHT22;4771;48.726;9.006;2023-12-07T02:02:36;3.60;99.90
9466;DHT22;4771;48.726;9.006;2023-12-07T02:05:03;3.60;99.90
9466;DHT22;4771;48.726;9.006;2023-12-07T02:07:33;3.60;99.90
9466;DHT22;4771;48.726;9.006;2023-12-07T02:10:00;3.60;99.90
9466;DHT22;4771;48.726;9.006;2023-12-07T02:12:28;3.60;99.90
9466;DHT22;4771;48.726;9.006;2023-12-07T02:14:56;3.60;99.90
9466;DHT22;4771;48.726;9.006;2023-12-07T02:17:28;3.60;99.90
9466;DHT22;4771;48.726;9.006;2023-12-07T02:20:07;3.60;99.90
9466;DHT22;4771;48.726;9.006;2023-12-07T02:22:39;3.60;99.90
9466;DHT22;4771;48.726;9.006;2023-12-07T02:25:10;3.50;99.90
9466;DHT22;4771;48.726;9.006;2023-12-07T02:27:40;3.50;99.90
9466;DHT22;4771;48.726;9.006;2023-12-07T02:30:08;3.50;99.90
9466;DHT22;4771;48.726;9.006;2023-12-07T02:32:36;3.40;99.90
9466;DHT22;4771;48.726;9.006;2023-12-07T02:35:04;3.30;99.90
9466;DHT22;4771;48.726;9.006;2023-12-07T02:37:35;3.30;99.90
9466;DHT22;4771;48.726;9.006;2023-12-07T02:40:05;3.20;99.90
9466;DHT22;4771;48.726;9.006;2023-12-07T02:42:37;3.20;99.90
9466;DHT22;4771;48.726;9.006;2023-12-07T02:45:07;3.20;99.90
9466;DHT22;4771;48.726;9.006;2023-12-07T02:47:34;3.20;99.90
9466;DHT22;4771;48.726;9.006;2023-12-07T02:50:02;3.20;99.90
9466;DHT22;4771;48.726;9.006;2023-12-07T02:52:29;3.20;99.90
9466;DHT22;4771;48.726;9.006;2023-12-07T02:54:56;3.20;99.90
9466;DHT22;4771;48.726;9.006;2023-12-07T02:57:23;3.20;99.90
9466;DHT22;4771;48.726;9.006;2023-12-07T02:59:51;3.30;99.90
9466;DHT22;4771;48.726;9.006;2023-12-07T03:02:18;3.30;99.90
9466;DHT22;4771;48.726;9.006;2023-12-07T03:04:45;3.30;99.90
9466;DHT22;4771;48.726;9.006;2023-12-07T03:07:11;3.30;99.90
9466;DHT22;4771;48.726;9.006;2023-12-07T03:09:38;3.30;99.90
9466;DHT22;4771;48.726;9.006;2023-12-07T03:12:06;3.30;99.90
9466;DHT22;4771;48.726;9.006;2023-12-07T03:14:33;3.20;99.90
9466;DHT22;4771;48.726;9.006;2023-12-07T03:17:01;3.10;99.90
9466;DHT22;4771;48.726;9.006;2023-12-07T03:19:28;3.10;99.90
9466;DHT22;4771;48.726;9.006;2023-12-07T03:21:55;3.00;99.90
9466;DHT22;4771;48.726;9.006;2023-12-07T03:24:22;3.00;99.90
9466;DHT22;4771;48.726;9.006;2023-12-07T03:26:49;3.00;99.90
9466;DHT22;4771;48.726;9.006;2023-12-07T03:29:16;2.90;99.90
9466;DHT22;4771;48.726;9.006;2023-12-07T03:31:43;2.90;99.90
9466;DHT22;4771;48.726;9.006;2023-12-07T03:34:11;2.90;99.90
9466;DHT22;4771;48.726;9.006;2023-12-07T03:36:41;2.90;99.90
9466;DHT22;4771;48.726;9.006;2023-12-07T03:39:08;2.90;99.90
9466;DHT22;4771;48.726;9.006;2023-12-07T03:41:35;2.80;99.90
9466;DHT22;4771;48.726;9.006;2023-12-07T03:44:02;2.80;99.90
9466;DHT22;4771;48.726;9.006;2023-12-07T03:46:29;2.70;99.90
9466;DHT22;4771;48.726;9.006;2023-12-07T03:48:56;2.70;99.90
9466;DHT22;4771;48.726;9.006;2023-12-07T03:51:24;2.70;99.90
9466;DHT22;4771;48.726;9.006;2023-12-07T03:53:51;2.60;99.90
9466;DHT22;4771;48.726;9.006;2023-12-07T03:56:24;2.80;99.90
9466;DHT22;4771;48.726;9.006;2023-12-07T03:58:51;2.60;99.90
9466;DHT22;4771;48.726;9.006;2023-12-07T04:01:21;2.60;99.90
9466;DHT22;4771;48.726;9.006;2023-12-07T04:03:49;2.60;99.90
9466;DHT22;4771;48.726;9.006;2023-12-07T04:06:16;2.50;99.90
9466;DHT22;4771;48.726;9.006;2023-12-07T04:08:45;2.50;99.90
9466;DHT22;4771;48.726;9.006;2023-12-07T04:11:12;2.40;99.90
9466;DHT22;4771;48.726;9.006;2023-12-07T04:13:39;2.50;99.90
9466;DHT22;4771;48.726;9.006;2023-12-07T04:16:07;2.40;99.90
9466;DHT22;4771;48.726;9.006;2023-12-07T04:18:34;2.40;99.90
9466;DHT22;4771;48.726;9.006;2023-12-07T04:21:01;2.40;99.90
9466;DHT22;4771;48.726;9.006;2023-12-07T04:23:28;2.30;99.90
9466;DHT22;4771;48.726;9.006;2023-12-07T04:25:56;2.30;99.90
9466;DHT22;4771;48.726;9.006;2023-12-07T04:28:23;2.20;99.90
9466;DHT22;4771;48.726;9.006;2023-12-07T04:30:50;2.20;99.90
9466;DHT22;4771;48.726;9.006;2023-12-07T04:33:18;2.20;99.90
9466;DHT22;4771;48.726;9.006;2023-12-07T04:35:44;2.20;99.90
9466;DHT22;4771;48.726;9.006;2023-12-07T04:38:11;2.20;99.90
9466;DHT22;4771;48.726;9.006;2023-12-07T04:40:38;2.20;99.90
9466;DHT22;4771;48.726;9.006;2023-12-07T04:43:06;2.20;99.90
9466;DHT22;4771;48.726;9.006;2023-12-07T04:45:33;2.10;99.90
9466;DHT22;4771;48.726;9.006;2023-12-07T04:48:00;2.10;99.90
9466;DHT22;4771;48.726;9.006;2023-12-07T04:50:29;2.10;99.90
9466;DHT22;4771;48.726;9.006;2023-12-07T04:52:56;2.10;99.90
9466;DHT22;4771;48.726;9.006;2023-12-07T04:55:22;2.00;99.90
9466;DHT22;4771;48.726;9.006;2023-12-07T04:57:49;2.10;99.90
9466;DHT22;4771;48.726;9.006;2023-12-07T05:00:18;2.00;99.90
9466;DHT22;4771;48.726;9.006;2023-12-07T05:02:45;2.00;99.90
9466;DHT22;4771;48.726;9.006;2023-12-07T05:05:13;2.00;99.90
9466;DHT22;4771;48.726;9.006;2023-12-07T05:07:40;2.00;99.90
9466;DHT22;4771;48.726;9.006;2023-12-07T05:10:08;1.90;99.90
9466;DHT22;4771;48.726;9.006;2023-12-07T05:12:35;1.90;99.90
9466;DHT22;4771;48.726;9.006;2023-12-07T05:15:02;2.00;99.90
9466;DHT22;4771;48.726;9.006;2023-12-07T05:17:31;1.90;99.90
9466;DHT22;4771;48.726;9.006;2023-12-07T05:19:58;1.90;99.90
9466;DHT22;4771;48.726;9.006;2023-12-07T05:22:25;1.90;99.90
9466;DHT22;4771;48.726;9.006;2023-12-07T05:24:51;1.90;99.90
9466;DHT22;4771;48.726;9.006;2023-12-07T05:27:18;1.80;99.90
9466;DHT22;4771;48.726;9.006;2023-12-07T05:29:45;1.80;99.90
9466;DHT22;4771;48.726;9.006;2023-12-07T05:32:12;1.80;99.90
9466;DHT22;4771;48.726;9.006;2023-12-07T05:34:40;1.80;99.90
9466;DHT22;4771;48.726;9.006;2023-12-07T05:37:10;1.80;99.90
9466;DHT22;4771;48.726;9.006;2023-12-07T05:39:37;1.80;99.90
9466;DHT22;4771;48.726;9.006;2023-12-07T05:42:04;1.70;99.90
9466;DHT22;4771;48.726;9.006;2023-12-07T05:44:31;1.70;99.90
9466;DHT22;4771;48.726;9.006;2023-12-07T05:46:58;1.70;99.90
9466;DHT22;4771;48.726;9.006;2023-12-07T05:49:25;1.70;99.90
9466;DHT22;4771;48.726;9.006;2023-12-07T05:51:53;1.70;99.90
9466;DHT22;4771;48.726;9.006;2023-12-07T05:54:20;1.70;99.90
9466;DHT22;4771;48.726;9.006;2023-12-07T05:56:47;1.50;99.90
9466;DHT22;4771;48.726;9.006;2023-12-07T05:59:15;1.60;99.90
9466;DHT22;4771;48.726;9.006;2023-12-07T06:01:42;1.60;99.90
9466;DHT22;4771;48.726;9.006;2023-12-07T06:04:09;1.60;99.90
9466;DHT22;4771;48.726;9.006;2023-12-07T06:06:37;1.60;99.90
9466;DHT22;4771;48.726;9.006;2023-12-07T06:09:05;1.60;99.90
9466;DHT22;4771;48.726;9.006;2023-12-07T06:11:33;1.60;99.90
9466;DHT22;4771;48.726;9.006;2023-12-07T06:14:00;1.60;99.90
9466;DHT22;4771;48.726;9.006;2023-12-07T06:16:27;1.60;99.90
9466;DHT22;4771;48.726;9.006;2023-12-07T06:18:54;1.60;99.90
9466;DHT22;4771;48.726;9.006;2023-12-07T06:21:21;1.50;99.90
9466;DHT22;4771;48.726;9.006;2023-12-07T06:23:48;1.50;99.90
9466;DHT22;4771;48.726;9.006;2023-12-07T06:26:16;1.40;99.90
9466;DHT22;4771;48.726;9.006;2023-12-07T06:28:43;1.40;99.90
9466;DHT22;4771;48.726;9.006;2023-12-07T06:31:10;1.40;99.90
9466;DHT22;4771;48.726;9.006;2023-12-07T06:33:37;1.40;99.90
9466;DHT22;4771;48.726;9.006;2023-12-07T06:36:05;1.40;99.90
9466;DHT22;4771;48.726;9.006;2023-12-07T06:38:32;1.40;99.90
9466;DHT22;4771;48.726;9.006;2023-12-07T06:40:59;1.40;99.90
9466;DHT22;4771;48.726;9.006;2023-12-07T06:43:27;1.50;99.90
9466;DHT22;4771;48.726;9.006;2023-12-07T06:45:54;1.40;99.90
9466;DHT22;4771;48.726;9.006;2023-12-07T06:48:21;1.40;99.90
9466;DHT22;4771;48.726;9.006;2023-12-07T06:50:48;1.40;99.90
9466;DHT22;4771;48.726;9.006;2023-12-07T06:53:15;1.40;99.90
9466;DHT22;4771;48.726;9.006;2023-12-07T06:55:44;1.40;99.90
9466;DHT22;4771;48.726;9.006;2023-12-07T06:58:10;1.40;99.90
9466;DHT22;4771;48.726;9.006;2023-12-07T07:00:39;1.40;99.90
9466;DHT22;4771;48.726;9.006;2023-12-07T07:03:05;1.50;99.90
9466;DHT22;4771;48.726;9.006;2023-12-07T07:05:32;1.50;99.90
9466;DHT22;4771;48.726;9.006;2023-12-07T07:07:59;1.40;99.90
9466;DHT22;4771;48.726;9.006;2023-12-07T07:10:26;1.40;99.90
9466;DHT22;4771;48.726;9.006;2023-12-07T07:12:53;1.40;99.90
9466;DHT22;4771;48.726;9.006;2023-12-07T07:15:20;1.30;99.90
9466;DHT22;4771;48.726;9.006;2023-12-07T07:17:53;1.30;99.90
9466;DHT22;4771;48.726;9.006;2023-12-07T07:20:19;1.30;99.90
9466;DHT22;4771;48.726;9.006;2023-12-07T07:22:47;1.40;99.90
9466;DHT22;4771;48.726;9.006;2023-12-07T07:25:14;1.40;99.90
9466;DHT22;4771;48.726;9.006;2023-12-07T07:27:45;1.40;99.90
9466;DHT22;4771;48.726;9.006;2023-12-07T07:30:12;1.30;99.90
9466;DHT22;4771;48.726;9.006;2023-12-07T07:32:39;1.30;99.90
9466;DHT22;4771;48.726;9.006;2023-12-07T07:35:08;1.40;99.90
9466;DHT22;4771;48.726;9.006;2023-12-07T07:37:37;1.30;99.90
9466;DHT22;4771;48.726;9.006;2023-12-07T07:40:05;1.40;99.90
9466;DHT22;4771;48.726;9.006;2023-12-07T07:42:32;1.40;99.90
9466;DHT22;4771;48.726;9.006;2023-12-07T07:44:59;1.40;99.90
9466;DHT22;4771;48.726;9.006;2023-12-07T07:47:26;1.50;99.90
9466;DHT22;4771;48.726;9.006;2023-12-07T07:49:53;1.50;99.90
9466;DHT22;4771;48.726;9.006;2023-12-07T07:52:21;1.50;99.90
9466;DHT22;4771;48.726;9.006;2023-12-07T07:54:48;1.50;99.90
9466;DHT22;4771;48.726;9.006;2023-12-07T07:57:15;1.60;99.90
9466;DHT22;4771;48.726;9.006;2023-12-07T07:59:42;1.70;99.90
9466;DHT22;4771;48.726;9.006;2023-12-07T08:02:08;1.70;99.90
9466;DHT22;4771;48.726;9.006;2023-12-07T08:04:35;1.80;99.90
9466;DHT22;4771;48.726;9.006;2023-12-07T08:07:02;1.80;99.90
9466;DHT22;4771;48.726;9.006;2023-12-07T08:09:31;1.90;99.90
9466;DHT22;4771;48.726;9.006;2023-12-07T08:12:00;1.90;99.90
9466;DHT22;4771;48.726;9.006;2023-12-07T08:14:27;1.90;99.90
9466;DHT22;4771;48.726;9.006;2023-12-07T08:16:54;2.00;99.90
9466;DHT22;4771;48.726;9.006;2023-12-07T08:19:21;2.00;99.90
9466;DHT22;4771;48.726;9.006;2023-12-07T08:21:48;2.00;99.90
9466;DHT22;4771;48.726;9.006;2023-12-07T08:24:16;2.00;99.90
9466;DHT22;4771;48.726;9.006;2023-12-07T08:26:45;2.00;99.90
9466;DHT22;4771;48.726;9.006;2023-12-07T08:29:12;2.00;99.90
9466;DHT22;4771;48.726;9.006;2023-12-07T08:31:40;2.10;99.90
9466;DHT22;4771;48.726;9.006;2023-12-07T08:34:07;2.10;99.90
9466;DHT22;4771;48.726;9.006;2023-12-07T08:36:33;2.10;99.90
9466;DHT22;4771;48.726;9.006;2023-12-07T08:39:00;2.20;99.90
9466;DHT22;4771;48.726;9.006;2023-12-07T08:41:27;2.20;99.90
9466;DHT22;4771;48.726;9.006;2023-12-07T08:43:55;2.30;99.90
9466;DHT22;4771;48.726;9.006;2023-12-07T08:46:22;2.30;99.90
9466;DHT22;4771;48.726;9.006;2023-12-07T08:48:49;2.40;99.90
9466;DHT22;4771;48.726;9.006;2023-12-07T08:51:16;2.40;99.90
9466;DHT22;4771;48.726;9.006;2023-12-07T08:53:43;2.40;99.90
9466;DHT22;4771;48.726;9.006;2023-12-07T08:56:10;2.60;99.90
9466;DHT22;4771;48.726;9.006;2023-12-07T08:58:38;2.60;99.90
9466;DHT22;4771;48.726;9.006;2023-12-07T09:01:06;2.60;99.90
9466;DHT22;4771;48.726;9.006;2023-12-07T09:03:33;2.70;99.90
9466;DHT22;4771;48.726;9.006;2023-12-07T09:06:01;2.80;99.90
9466;DHT22;4771;48.726;9.006;2023-12-07T09:08:28;2.80;99.90
9466;DHT22;4771;48.726;9.006;2023-12-07T09:10:55;2.80;99.90
9466;DHT22;4771;48.726;9.006;2023-12-07T09:13:21;2.90;99.90
9466;DHT22;4771;48.726;9.006;2023-12-07T09:15:48;3.00;99.90
9466;DHT22;4771;48.726;9.006;2023-12-07T09:18:17;3.00;99.90
9466;DHT22;4771;48.726;9.006;2023-12-07T09:20:43;3.10;99.90
9466;DHT22;4771;48.726;9.006;2023-12-07T09:23:12;3.30;99.90
9466;DHT22;4771;48.726;9.006;2023-12-07T09:25:40;3.40;99.90
9466;DHT22;4771;48.726;9.006;2023-12-07T09:28:07;3.50;99.90
9466;DHT22;4771;48.726;9.006;2023-12-07T09:30:35;3.60;99.90
9466;DHT22;4771;48.726;9.006;2023-12-07T09:33:02;3.70;99.90
9466;DHT22;4771;48.726;9.006;2023-12-07T09:35:31;3.80;99.90
9466;DHT22;4771;48.726;9.006;2023-12-07T09:37:59;3.80;99.90
9466;DHT22;4771;48.726;9.006;2023-12-07T09:40:26;3.90;99.90
9466;DHT22;4771;48.726;9.006;2023-12-07T09:42:54;4.10;99.90
9466;DHT22;4771;48.726;9.006;2023-12-07T09:45:21;4.20;99.90
9466;DHT22;4771;48.726;9.006;2023-12-07T09:47:49;4.30;99.90
9466;DHT22;4771;48.726;9.006;2023-12-07T09:50:17;4.40;99.90
9466;DHT22;4771;48.726;9.006;2023-12-07T09:52:49;4.50;99.90
9466;DHT22;4771;48.726;9.006;2023-12-07T09:55:17;4.60;99.90
9466;DHT22;4771;48.726;9.006;2023-12-07T09:57:44;4.80;99.90
9466;DHT22;4771;48.726;9.006;2023-12-07T10:00:12;4.90;99.90
9466;DHT22;4771;48.726;9.006;2023-12-07T10:02:40;4.90;99.90
9466;DHT22;4771;48.726;9.006;2023-12-07T10:05:09;5.00;99.90
9466;DHT22;4771;48.726;9.006;2023-12-07T10:07:41;5.10;99.90
9466;DHT22;4771;48.726;9.006;2023-12-07T10:10:10;5.20;99.90
9466;DHT22;4771;48.726;9.006;2023-12-07T10:12:45;5.30;99.90
9466;DHT22;4771;48.726;9.006;2023-12-07T10:15:14;5.30;99.90
9466;DHT22;4771;48.726;9.006;2023-12-07T10:17:46;5.40;99.90
9466;DHT22;4771;48.726;9.006;2023-12-07T10:20:15;5.70;99.90
9466;DHT22;4771;48.726;9.006;2023-12-07T10:22:42;5.60;99.90
9466;DHT22;4771;48.726;9.006;2023-12-07T10:25:11;5.60;99.90
9466;DHT22;4771;48.726;9.006;2023-12-07T10:27:40;5.70;99.90
9466;DHT22;4771;48.726;9.006;2023-12-07T10:30:10;5.80;99.90
9466;DHT22;4771;48.726;9.006;2023-12-07T10:32:38;5.90;99.90
9466;DHT22;4771;48.726;9.006;2023-12-07T10:35:07;5.90;99.90
9466;DHT22;4771;48.726;9.006;2023-12-07T10:37:34;6.00;99.90
9466;DHT22;4771;48.726;9.006;2023-12-07T10:40:02;6.00;99.90
9466;DHT22;4771;48.726;9.006;2023-12-07T10:42:34;6.10;99.90
9466;DHT22;4771;48.726;9.006;2023-12-07T10:45:05;6.10;99.90
9466;DHT22;4771;48.726;9.006;2023-12-07T10:47:36;6.20;99.90
9466;DHT22;4771;48.726;9.006;2023-12-07T10:50:05;6.30;99.90
9466;DHT22;4771;48.726;9.006;2023-12-07T10:52:37;6.40;99.90
9466;DHT22;4771;48.726;9.006;2023-12-07T10:55:07;6.40;99.90
9466;DHT22;4771;48.726;9.006;2023-12-07T10:57:38;6.50;99.90
9466;DHT22;4771;48.726;9.006;2023-12-07T11:00:07;6.60;99.90
9466;DHT22;4771;48.726;9.006;2023-12-07T11:02:35;6.60;99.90
9466;DHT22;4771;48.726;9.006;2023-12-07T11:05:03;6.70;99.90
9466;DHT22;4771;48.726;9.006;2023-12-07T11:07:38;6.70;99.90
9466;DHT22;4771;48.726;9.006;2023-12-07T11:10:15;6.80;99.90
9466;DHT22;4771;48.726;9.006;2023-12-07T11:12:50;6.90;98.80
9466;DHT22;4771;48.726;9.006;2023-12-07T11:15:20;7.00;97.90
9466;DHT22;4771;48.726;9.006;2023-12-07T11:17:50;7.10;97.90
9466;DHT22;4771;48.726;9.006;2023-12-07T11:20:19;7.20;98.10
9466;DHT22;4771;48.726;9.006;2023-12-07T11:22:47;7.20;95.10
9466;DHT22;4771;48.726;9.006;2023-12-07T11:25:15;7.30;97.50
9466;DHT22;4771;48.726;9.006;2023-12-07T11:27:46;7.40;97.40
9466;DHT22;4771;48.726;9.006;2023-12-07T11:30:16;7.40;97.70
9466;DHT22;4771;48.726;9.006;2023-12-07T11:32:44;7.50;95.60
9466;DHT22;4771;48.726;9.006;2023-12-07T11:35:14;7.60;96.30
9466;DHT22;4771;48.726;9.006;2023-12-07T11:38:04;7.60;97.00
9466;DHT22;4771;48.726;9.006;2023-12-07T11:40:34;7.70;94.60
9466;DHT22;4771;48.726;9.006;2023-12-07T11:43:03;7.90;95.10
9466;DHT22;4771;48.726;9.006;2023-12-07T11:45:38;7.90;96.40
9466;DHT22;4771;48.726;9.006;2023-12-07T11:48:09;7.90;95.70
9466;DHT22;4771;48.726;9.006;2023-12-07T11:50:36;7.90;94.90
9466;DHT22;4771;48.726;9.006;2023-12-07T11:53:21;8.00;95.20
9466;DHT22;4771;48.726;9.006;2023-12-07T11:55:48;8.00;94.20
9466;DHT22;4771;48.726;9.006;2023-12-07T11:58:16;8.10;92.30
9466;DHT22;4771;48.726;9.006;2023-12-07T12:00:43;8.10;91.40
9466;DHT22;4771;48.726;9.006;2023-12-07T12:03:12;8.10;83.90
9466;DHT22;4771;48.726;9.006;2023-12-07T12:05:40;8.00;89.60
9466;DHT22;4771;48.726;9.006;2023-12-07T12:08:07;7.90;90.30
9466;DHT22;4771;48.726;9.006;2023-12-07T12:10:33;7.80;81.90
9466;DHT22;4771;48.726;9.006;2023-12-07T12:13:01;7.70;78.90
9466;DHT22;4771;48.726;9.006;2023-12-07T12:15:30;7.60;81.00
9466;DHT22;4771;48.726;9.006;2023-12-07T12:17:57;7.60;83.50
9466;DHT22;4771;48.726;9.006;2023-12-07T12:20:25;7.60;78.90
9466;DHT22;4771;48.726;9.006;2023-12-07T12:22:52;7.60;75.20
9466;DHT22;4771;48.726;9.006;2023-12-07T12:25:20;7.70;75.50
9466;DHT22;4771;48.726;9.006;2023-12-07T12:27:48;7.60;73.90
9466;DHT22;4771;48.726;9.006;2023-12-07T12:30:16;7.60;75.30
9466;DHT22;4771;48.726;9.006;2023-12-07T12:32:46;7.70;77.00
9466;DHT22;4771;48.726;9.006;2023-12-07T12:35:13;7.70;80.30
9466;DHT22;4771;48.726;9.006;2023-12-07T12:37:41;7.60;72.90
9466;DHT22;4771;48.726;9.006;2023-12-07T12:40:10;7.50;69.40
9466;DHT22;4771;48.726;9.006;2023-12-07T12:42:37;7.40;76.00
9466;DHT22;4771;48.726;9.006;2023-12-07T12:45:05;7.30;73.80
9466;DHT22;4771;48.726;9.006;2023-12-07T12:47:33;7.20;74.20
9466;DHT22;4771;48.726;9.006;2023-12-07T12:50:02;7.00;72.10
9466;DHT22;4771;48.726;9.006;2023-12-07T12:52:30;6.90;71.30
9466;DHT22;4771;48.726;9.006;2023-12-07T12:54:57;6.80;72.20
9466;DHT22;4771;48.726;9.006;2023-12-07T12:57:24;6.70;71.80
9466;DHT22;4771;48.726;9.006;2023-12-07T12:59:51;6.60;72.90
9466;DHT22;4771;48.726;9.006;2023-12-07T13:02:19;6.70;75.10
9466;DHT22;4771;48.726;9.006;2023-12-07T13:04:46;6.70;75.80
9466;DHT22;4771;48.726;9.006;2023-12-07T13:07:14;6.80;76.60
9466;DHT22;4771;48.726;9.006;2023-12-07T13:09:41;6.80;75.50
9466;DHT22;4771;48.726;9.006;2023-12-07T13:12:09;6.80;76.90
9466;DHT22;4771;48.726;9.006;2023-12-07T13:14:36;6.80;76.50
9466;DHT22;4771;48.726;9.006;2023-12-07T13:17:05;6.80;77.80
9466;DHT22;4771;48.726;9.006;2023-12-07T13:19:33;6.70;75.80
9466;DHT22;4771;48.726;9.006;2023-12-07T13:22:00;6.60;76.60
9466;DHT22;4771;48.726;9.006;2023-12-07T13:24:30;6.50;74.80
9466;DHT22;4771;48.726;9.006;2023-12-07T13:26:57;6.40;76.30
9466;DHT22;4771;48.726;9.006;2023-12-07T13:29:25;6.40;76.10
9466;DHT22;4771;48.726;9.006;2023-12-07T13:31:52;6.40;75.70
9466;DHT22;4771;48.726;9.006;2023-12-07T13:34:19;6.30;75.40
9466;DHT22;4771;48.726;9.006;2023-12-07T13:36:46;6.20;76.20
9466;DHT22;4771;48.726;9.006;2023-12-07T13:39:15;6.10;77.60
9466;DHT22;4771;48.726;9.006;2023-12-07T13:41:43;6.10;81.60
9466;DHT22;4771;48.726;9.006;2023-12-07T13:44:10;6.10;83.00
9466;DHT22;4771;48.726;9.006;2023-12-07T13:46:37;6.20;81.00
9466;DHT22;4771;48.726;9.006;2023-12-07T13:49:04;6.10;76.10
9466;DHT22;4771;48.726;9.006;2023-12-07T13:51:31;6.20;76.80
9466;DHT22;4771;48.726;9.006;2023-12-07T13:53:59;6.20;77.00
9466;DHT22;4771;48.726;9.006;2023-12-07T13:56:26;6.10;80.80
9466;DHT22;4771;48.726;9.006;2023-12-07T13:58:54;6.20;77.20
9466;DHT22;4771;48.726;9.006;2023-12-07T14:01:21;6.20;79.40
9466;DHT22;4771;48.726;9.006;2023-12-07T14:03:48;6.20;80.10
9466;DHT22;4771;48.726;9.006;2023-12-07T14:06:21;6.10;80.50
9466;DHT22;4771;48.726;9.006;2023-12-07T14:08:49;6.10;81.30
9466;DHT22;4771;48.726;9.006;2023-12-07T14:11:16;6.10;79.20
9466;DHT22;4771;48.726;9.006;2023-12-07T14:13:43;6.10;75.60
9466;DHT22;4771;48.726;9.006;2023-12-07T14:16:13;6.20;76.70
9466;DHT22;4771;48.726;9.006;2023-12-07T14:18:40;6.10;75.60
9466;DHT22;4771;48.726;9.006;2023-12-07T14:21:08;6.10;77.10
9466;DHT22;4771;48.726;9.006;2023-12-07T14:23:35;5.90;76.50
9466;DHT22;4771;48.726;9.006;2023-12-07T14:26:03;5.80;77.30
9466;DHT22;4771;48.726;9.006;2023-12-07T14:28:29;5.80;80.50
9466;DHT22;4771;48.726;9.006;2023-12-07T14:30:59;5.80;82.10
9466;DHT22;4771;48.726;9.006;2023-12-07T14:33:27;5.70;82.90
9466;DHT22;4771;48.726;9.006;2023-12-07T14:35:54;5.70;83.50
9466;DHT22;4771;48.726;9.006;2023-12-07T14:38:21;5.60;83.70
9466;DHT22;4771;48.726;9.006;2023-12-07T14:40:49;5.60;85.70
9466;DHT22;4771;48.726;9.006;2023-12-07T14:43:16;5.60;86.50
9466;DHT22;4771;48.726;9.006;2023-12-07T14:45:43;5.50;86.40
9466;DHT22;4771;48.726;9.006;2023-12-07T14:48:10;5.50;88.50
9466;DHT22;4771;48.726;9.006;2023-12-07T14:50:38;5.40;86.40
9466;DHT22;4771;48.726;9.006;2023-12-07T14:53:05;5.40;86.50
9466;DHT22;4771;48.726;9.006;2023-12-07T14:55:32;5.40;87.20
9466;DHT22;4771;48.726;9.006;2023-12-07T14:57:59;5.30;85.60
9466;DHT22;4771;48.726;9.006;2023-12-07T15:00:26;5.30;86.40
9466;DHT22;4771;48.726;9.006;2023-12-07T15:02:54;5.30;87.20
9466;DHT22;4771;48.726;9.006;2023-12-07T15:05:21;5.20;87.50
9466;DHT22;4771;48.726;9.006;2023-12-07T15:07:50;5.30;88.30
9466;DHT22;4771;48.726;9.006;2023-12-07T15:10:17;5.10;88.10
9466;DHT22;4771;48.726;9.006;2023-12-07T15:12:45;5.00;88.60
9466;DHT22;4771;48.726;9.006;2023-12-07T15:15:11;5.00;87.60
9466;DHT22;4771;48.726;9.006;2023-12-07T15:17:38;4.90;83.60
9466;DHT22;4771;48.726;9.006;2023-12-07T15:20:07;4.80;84.20
9466;DHT22;4771;48.726;9.006;2023-12-07T15:22:35;4.80;83.60
9466;DHT22;4771;48.726;9.006;2023-12-07T15:25:04;4.70;83.80
9466;DHT22;4771;48.726;9.006;2023-12-07T15:27:31;4.70;83.60
9466;DHT22;4771;48.726;9.006;2023-12-07T15:29:58;4.70;84.00
9466;DHT22;4771;48.726;9.006;2023-12-07T15:32:25;4.70;84.00
9466;DHT22;4771;48.726;9.006;2023-12-07T15:34:52;4.60;83.60
9466;DHT22;4771;48.726;9.006;2023-12-07T15:37:18;4.50;83.70
9466;DHT22;4771;48.726;9.006;2023-12-07T15:39:45;4.50;84.10
9466;DHT22;4771;48.726;9.006;2023-12-07T15:42:14;4.50;85.40
9466;DHT22;4771;48.726;9.006;2023-12-07T15:44:41;4.50;86.20
9466;DHT22;4771;48.726;9.006;2023-12-07T15:47:08;4.40;86.60
9466;DHT22;4771;48.726;9.006;2023-12-07T15:49:35;4.40;87.20
9466;DHT22;4771;48.726;9.006;2023-12-07T15:52:03;4.30;87.80
9466;DHT22;4771;48.726;9.006;2023-12-07T15:54:30;4.20;86.30
9466;DHT22;4771;48.726;9.006;2023-12-07T15:56:57;4.20;88.20
9466;DHT22;4771;48.726;9.006;2023-12-07T15:59:26;4.20;87.40
9466;DHT22;4771;48.726;9.006;2023-12-07T16:01:52;4.10;86.90
9466;DHT22;4771;48.726;9.006;2023-12-07T16:04:19;4.10;89.20
9466;DHT22;4771;48.726;9.006;2023-12-07T16:06:46;4.10;90.30
9466;DHT22;4771;48.726;9.006;2023-12-07T16:09:13;4.00;89.70
9466;DHT22;4771;48.726;9.006;2023-12-07T16:11:40;4.00;90.10
9466;DHT22;4771;48.726;9.006;2023-12-07T16:14:07;4.00;90.20
9466;DHT22;4771;48.726;9.006;2023-12-07T16:16:35;3.90;90.20
9466;DHT22;4771;48.726;9.006;2023-12-07T16:19:02;3.90;90.70
9466;DHT22;4771;48.726;9.006;2023-12-07T16:21:29;4.10;90.70